Cold Bay Airport
PACD : now visible

Aeroporto :











RITROVATECI SU...

 
LOGIN :

Iscrizione | Disclaimer

   EN    FR    IT 

 









Sommario :    VFR   VFR Marginale   IFR   IFR Intensivo   IFR Molto Intensivo
Visibilità : 
Base nubi : 
>= 8 km
>= 3000ft
5 / 8 km
1000 / 3000 ft
1500m / 5 km
500 / 1000 ft
800 / 1500m
200 / 500 ft
< 800m
< 200 ft
Simboli :   Temporali  Nebbia  Neve Forte  Precipitazioni Forti  Vento > 20 kt






- Altitudine del aeroporto : 96 ft
- Codice IATA : CDB


PACD - Cold Bay

ULTIMO METAR :
  • 300953Z AUTO 04007KT 10SM CLR M07/M08 A3004 RMK AO2 SLP173 I1000 T10671083 TSNO

METARs OBSOLETI :
  • 300853Z AUTO 31003KT 10SM CLR M07/M09 A3004 RMK AO2 SLP174 T10671089 410111072 58002 TSNO
  • 300824Z AUTO 00000KT 10SM SCT018 M07/M08 A3005 RMK AO2 T10671083 TSNO
  • 300753Z AUTO 33003KT 10SM BKN018 M05/M07 A3006 RMK AO2 SLP179 T10501072 TSNO
  • 300739Z AUTO 34003KT 10SM BKN018 M06/M08 A3006 RMK AO2 T10561078 TSNO
  • 300728Z AUTO 31004KT 10SM SCT018 M06/M08 A3005 RMK AO2 T10561078 TSNO

TAF PACD
Valido dal 30 a 06 ore il 31 a 06 ore UTC


300520Z 3006/3106 VRB06KT P6SM VCSH SCT025 SCT050 BKN200
TEMPO 3006/3010 BKN025



MetMap, La meteo Aeronautica in un colpo d'occhio ! - Copyright ORBIFLY Dicembre 2007 - Disclaimer

ORBIFLY MET'MAP TEAM :

Programmazione e sviluppo : Alexandra Zaïnal
Concezione : Baudouin d'Aumeries
Aiuto per la programmazione : Marc-Olivier Méhu
Supporto tecnico e logistico : Manuel Goepfert
Aiuto per la traduzione : Arnaldo La Scala

Contatto : metmap@orbifly.com




FONTI E CREDITI :

   NOAA       Earth
Advisory